createdAt,value
2018-07-07T00:02:25.986Z,14.97
2018-07-07T00:04:58.445Z,14.96
2018-07-07T00:07:30.863Z,14.98
2018-07-07T00:10:03.243Z,14.94
2018-07-07T00:12:35.610Z,14.91
2018-07-07T00:15:09.143Z,14.91
2018-07-07T00:17:41.901Z,14.90
2018-07-07T00:20:15.908Z,14.96
2018-07-07T00:22:48.554Z,14.93
2018-07-07T00:25:22.232Z,14.86
2018-07-07T00:27:54.498Z,14.70
2018-07-07T00:30:27.966Z,14.62
2018-07-07T00:33:01.012Z,14.55
2018-07-07T00:35:33.644Z,14.50
2018-07-07T00:38:07.194Z,14.49
2018-07-07T00:40:40.284Z,14.49
2018-07-07T00:43:12.910Z,14.45
2018-07-07T00:45:48.197Z,14.48
2018-07-07T00:48:20.398Z,14.61
2018-07-07T00:50:52.854Z,14.73
2018-07-07T00:53:28.216Z,14.66
2018-07-07T00:56:00.605Z,14.59
2018-07-07T00:58:33.036Z,14.52
2018-07-07T01:01:07.554Z,14.49
2018-07-07T01:03:39.955Z,14.51
2018-07-07T01:06:17.124Z,14.35
2018-07-07T01:08:49.390Z,14.28
2018-07-07T01:11:21.857Z,14.29
2018-07-07T01:13:54.982Z,14.24
2018-07-07T01:16:27.395Z,14.24
2018-07-07T01:18:59.827Z,14.09
2018-07-07T01:21:32.859Z,14.04
2018-07-07T01:24:05.494Z,13.85
2018-07-07T01:26:38.610Z,13.77
2018-07-07T01:29:12.150Z,12.81
2018-07-07T01:31:44.533Z,13.72
2018-07-07T01:34:16.808Z,13.93
2018-07-07T01:36:49.094Z,14.03
2018-07-07T01:39:21.297Z,14.07
2018-07-07T01:41:53.606Z,14.11
2018-07-07T01:44:25.937Z,14.01
2018-07-07T01:46:58.080Z,13.97
2018-07-07T01:49:31.839Z,13.95
2018-07-07T01:52:04.087Z,13.90
2018-07-07T01:54:36.382Z,13.79
2018-07-07T01:57:08.552Z,13.79
2018-07-07T01:59:40.774Z,13.79
2018-07-07T02:02:12.982Z,13.78
2018-07-07T02:04:45.421Z,13.85
2018-07-07T02:07:17.738Z,13.81
2018-07-07T02:09:49.857Z,13.78
2018-07-07T02:12:21.935Z,13.64
2018-07-07T02:14:54.040Z,13.64
2018-07-07T02:17:26.130Z,13.66
2018-07-07T02:19:58.268Z,13.65
2018-07-07T02:22:30.397Z,13.69
2018-07-07T02:25:02.553Z,13.69
2018-07-07T02:27:34.666Z,13.61
2018-07-07T02:30:06.804Z,13.68
2018-07-07T02:32:38.955Z,13.63
2018-07-07T02:35:11.090Z,13.65
2018-07-07T02:37:43.255Z,13.55
2018-07-07T02:40:15.411Z,13.47
2018-07-07T02:42:47.634Z,13.35
2018-07-07T02:45:19.750Z,13.39
2018-07-07T02:47:51.936Z,13.43
2018-07-07T02:50:24.114Z,13.41
2018-07-07T02:52:56.221Z,13.37
2018-07-07T02:55:28.396Z,13.39
2018-07-07T02:58:00.591Z,13.41
2018-07-07T03:00:32.733Z,13.40
2018-07-07T03:03:04.929Z,13.36
2018-07-07T03:05:37.067Z,13.39
2018-07-07T03:08:09.144Z,13.37
2018-07-07T03:10:41.342Z,13.42
2018-07-07T03:13:13.533Z,13.39
2018-07-07T03:15:45.608Z,13.24
2018-07-07T03:18:17.706Z,13.27
2018-07-07T03:20:49.840Z,13.29
2018-07-07T03:23:21.934Z,13.22
2018-07-07T03:25:54.097Z,13.20
2018-07-07T03:28:26.478Z,13.34
2018-07-07T03:30:58.555Z,13.35
2018-07-07T03:33:30.708Z,13.32
2018-07-07T03:36:02.859Z,13.28
2018-07-07T03:38:35.051Z,13.29
2018-07-07T03:41:07.130Z,13.25
2018-07-07T03:43:39.548Z,13.29
2018-07-07T03:46:11.728Z,13.30
2018-07-07T03:48:43.793Z,13.33
2018-07-07T03:51:15.871Z,13.45
2018-07-07T03:53:48.044Z,13.49
2018-07-07T03:56:21.177Z,13.49
2018-07-07T03:58:53.353Z,13.57
2018-07-07T04:01:25.475Z,13.60
2018-07-07T04:03:57.614Z,13.60
2018-07-07T04:06:29.746Z,13.58
2018-07-07T04:09:01.888Z,13.68
2018-07-07T04:11:33.935Z,13.76
2018-07-07T04:14:06.075Z,13.90
2018-07-07T04:16:38.213Z,14.00
2018-07-07T04:19:10.288Z,14.07
2018-07-07T04:21:42.401Z,14.26
2018-07-07T04:24:14.552Z,14.49
2018-07-07T04:26:46.625Z,14.61
2018-07-07T04:29:18.711Z,14.95
2018-07-07T04:31:50.832Z,15.68
2018-07-07T04:34:22.928Z,16.99
2018-07-07T04:36:55.063Z,17.87
2018-07-07T04:39:27.161Z,18.71
2018-07-07T04:41:59.226Z,19.28
2018-07-07T04:44:31.267Z,19.86
2018-07-07T04:47:03.378Z,20.39
2018-07-07T04:49:35.432Z,21.14
2018-07-07T04:52:07.509Z,21.75
2018-07-07T04:54:39.574Z,22.41
2018-07-07T04:57:11.667Z,21.67
2018-07-07T04:59:43.758Z,21.50
2018-07-07T05:02:15.831Z,22.55
2018-07-07T05:04:47.993Z,23.13
2018-07-07T05:07:20.151Z,23.30
2018-07-07T05:09:52.256Z,23.19
2018-07-07T05:12:24.381Z,23.30
2018-07-07T05:14:56.566Z,23.66
2018-07-07T05:17:28.730Z,24.04
2018-07-07T05:20:00.886Z,24.54
2018-07-07T05:22:32.979Z,25.36
2018-07-07T05:25:05.171Z,25.16
2018-07-07T05:27:37.345Z,24.92
2018-07-07T05:30:09.443Z,25.42
2018-07-07T05:32:48.413Z,24.92
2018-07-07T05:35:20.539Z,25.16
2018-07-07T05:37:53.016Z,25.68
2018-07-07T05:40:25.197Z,24.96
2018-07-07T05:42:57.325Z,25.47
2018-07-07T05:45:29.459Z,25.87
2018-07-07T05:48:01.581Z,26.58
2018-07-07T05:50:33.749Z,27.18
2018-07-07T05:53:05.896Z,26.52
2018-07-07T05:55:38.008Z,27.59
2018-07-07T05:58:10.167Z,27.76
2018-07-07T06:00:42.376Z,27.50
2018-07-07T06:03:14.456Z,27.88
2018-07-07T06:05:46.615Z,26.27
2018-07-07T06:08:18.719Z,26.31
2018-07-07T06:10:50.857Z,25.74
2018-07-07T06:13:22.963Z,26.38
2018-07-07T06:15:55.036Z,26.62
2018-07-07T06:18:27.202Z,27.36
2018-07-07T06:20:59.312Z,27.33
2018-07-07T06:23:31.356Z,27.51
2018-07-07T06:26:03.475Z,27.90
2018-07-07T06:28:35.585Z,28.07
2018-07-07T06:31:07.980Z,28.30
2018-07-07T06:33:40.129Z,27.35
2018-07-07T06:36:12.209Z,27.37
2018-07-07T06:38:44.360Z,27.05
2018-07-07T06:41:16.461Z,27.11
2018-07-07T06:43:48.541Z,28.12
2018-07-07T06:46:20.694Z,26.63
2018-07-07T06:48:52.834Z,27.17
2018-07-07T06:51:25.008Z,27.57
2018-07-07T06:53:57.286Z,26.49
2018-07-07T06:56:29.232Z,25.64
2018-07-07T06:59:01.348Z,28.18
2018-07-07T07:01:33.456Z,29.03
2018-07-07T07:04:05.640Z,27.54
2018-07-07T07:06:37.764Z,27.65
2018-07-07T07:09:10.707Z,27.76
2018-07-07T07:11:42.867Z,28.77
2018-07-07T07:14:15.135Z,27.79
2018-07-07T07:16:47.296Z,27.30
2018-07-07T07:19:20.459Z,27.17
2018-07-07T07:21:52.621Z,28.56
2018-07-07T07:24:24.774Z,30.35
2018-07-07T07:26:56.869Z,29.88
2018-07-07T07:29:29.000Z,28.46
2018-07-07T07:32:01.173Z,29.15
2018-07-07T07:34:33.333Z,29.87
2018-07-07T07:37:05.513Z,30.74
2018-07-07T07:39:37.674Z,29.65
2018-07-07T07:42:09.887Z,28.87
2018-07-07T07:44:42.104Z,29.66
2018-07-07T07:47:14.243Z,31.17
2018-07-07T07:49:46.376Z,30.51
2018-07-07T07:52:18.511Z,31.18
2018-07-07T07:54:50.648Z,30.95
2018-07-07T07:57:23.872Z,32.42
2018-07-07T07:59:56.623Z,33.00
2018-07-07T08:02:28.754Z,29.96
2018-07-07T08:05:00.990Z,30.57
2018-07-07T08:07:33.228Z,29.81
2018-07-07T08:10:05.390Z,30.67
2018-07-07T08:12:37.563Z,30.41
2018-07-07T08:15:09.720Z,30.83
2018-07-07T08:17:41.857Z,30.53
2018-07-07T08:20:13.981Z,28.98
2018-07-07T08:22:46.168Z,29.67
2018-07-07T08:25:18.326Z,31.70
2018-07-07T08:27:50.562Z,29.54
2018-07-07T08:30:22.710Z,30.32
2018-07-07T08:32:54.895Z,28.09
2018-07-07T08:35:26.990Z,29.37
2018-07-07T08:37:59.222Z,29.59
2018-07-07T08:40:31.326Z,29.94
2018-07-07T08:43:03.452Z,30.09
2018-07-07T08:45:35.624Z,29.56
2018-07-07T08:48:07.802Z,29.41
2018-07-07T08:50:40.072Z,29.47
2018-07-07T08:53:12.584Z,28.83
2018-07-07T08:55:44.719Z,29.17
2018-07-07T08:58:16.874Z,30.13
2018-07-07T09:00:49.116Z,29.75
2018-07-07T09:03:21.505Z,30.40
2018-07-07T09:05:53.773Z,30.12
2018-07-07T09:08:26.631Z,31.36
2018-07-07T09:10:58.803Z,29.23
2018-07-07T09:13:30.988Z,28.05
2018-07-07T09:16:03.120Z,26.13
2018-07-07T09:18:35.329Z,24.35
2018-07-07T09:21:07.611Z,24.31
2018-07-07T09:23:39.748Z,25.82
2018-07-07T09:26:11.889Z,25.96
2018-07-07T09:28:44.045Z,28.17
2018-07-07T09:31:16.169Z,29.74
2018-07-07T09:33:50.300Z,29.11
2018-07-07T09:36:22.459Z,29.87
2018-07-07T09:38:54.707Z,30.43
2018-07-07T09:41:26.811Z,31.25
2018-07-07T09:43:58.984Z,30.31
2018-07-07T09:46:31.120Z,30.96
2018-07-07T09:49:03.428Z,30.60
2018-07-07T09:51:35.537Z,30.31
2018-07-07T09:54:07.666Z,30.60
2018-07-07T09:56:39.869Z,31.02
2018-07-07T09:59:12.081Z,30.36
2018-07-07T10:01:44.224Z,31.13
2018-07-07T10:04:16.471Z,31.27
2018-07-07T10:06:49.228Z,30.19
2018-07-07T10:09:21.306Z,29.47
2018-07-07T10:11:53.359Z,30.22
2018-07-07T10:14:25.586Z,30.72
2018-07-07T10:16:57.725Z,30.33
2018-07-07T10:19:29.866Z,29.73
2018-07-07T10:22:02.057Z,30.03
2018-07-07T10:24:34.189Z,30.26
2018-07-07T10:27:06.317Z,30.63
2018-07-07T10:29:38.502Z,29.87
2018-07-07T10:32:10.605Z,29.85
2018-07-07T10:34:42.643Z,30.11
2018-07-07T10:37:14.786Z,30.26
2018-07-07T10:39:46.923Z,28.80
2018-07-07T10:42:19.068Z,28.61
2018-07-07T10:44:51.512Z,28.41
2018-07-07T10:47:24.723Z,29.13
2018-07-07T10:49:56.750Z,30.94
2018-07-07T10:52:29.312Z,30.72
2018-07-07T10:55:01.563Z,30.08
2018-07-07T10:57:33.782Z,28.28
2018-07-07T11:00:06.394Z,29.07
2018-07-07T11:02:39.580Z,28.65
2018-07-07T11:05:11.780Z,27.89
2018-07-07T11:07:43.969Z,27.91
2018-07-07T11:10:16.156Z,28.56
2018-07-07T11:12:48.279Z,28.73
2018-07-07T11:15:20.495Z,28.39
2018-07-07T11:17:52.729Z,28.57
2018-07-07T11:20:24.929Z,28.94
2018-07-07T11:22:57.102Z,28.82
2018-07-07T11:25:29.284Z,29.97
2018-07-07T11:28:01.455Z,29.23
2018-07-07T11:30:33.595Z,28.27
2018-07-07T11:33:05.876Z,29.61
2018-07-07T11:35:38.050Z,29.30
2018-07-07T11:38:10.249Z,29.23
2018-07-07T11:40:42.423Z,29.63
2018-07-07T11:43:14.572Z,30.79
2018-07-07T11:45:46.834Z,29.79
2018-07-07T11:48:19.036Z,29.58
2018-07-07T11:50:51.257Z,30.29
2018-07-07T11:53:23.528Z,30.71
2018-07-07T11:55:55.721Z,30.79
2018-07-07T11:58:27.896Z,29.51
2018-07-07T12:01:00.201Z,29.25
2018-07-07T12:03:32.422Z,30.65
2018-07-07T12:06:04.611Z,30.31
2018-07-07T12:08:38.604Z,30.37
2018-07-07T12:11:10.829Z,29.79
2018-07-07T12:13:42.955Z,31.36
2018-07-07T12:16:15.693Z,31.95
2018-07-07T12:18:47.804Z,32.45
2018-07-07T12:21:20.079Z,31.40
2018-07-07T12:23:52.280Z,31.82
2018-07-07T12:26:24.415Z,31.86
2018-07-07T12:30:27.061Z,31.14
2018-07-07T12:32:59.243Z,30.69
2018-07-07T12:35:31.413Z,30.19
2018-07-07T12:38:03.667Z,30.84
2018-07-07T12:40:35.897Z,31.55
2018-07-07T12:43:07.987Z,31.50
2018-07-07T12:45:40.207Z,30.78
2018-07-07T12:48:12.397Z,29.83
2018-07-07T12:50:44.536Z,31.91
2018-07-07T12:53:16.643Z,33.09
2018-07-07T12:55:48.851Z,33.74
2018-07-07T12:58:21.040Z,33.82
2018-07-07T13:00:53.324Z,34.12
2018-07-07T13:03:25.482Z,33.32
2018-07-07T13:05:57.712Z,34.36
2018-07-07T13:08:29.977Z,34.63
2018-07-07T13:11:02.212Z,33.53
2018-07-07T13:13:34.454Z,35.56
2018-07-07T13:16:06.746Z,35.25
2018-07-07T13:18:38.886Z,35.62
2018-07-07T13:21:11.040Z,34.91
2018-07-07T13:23:43.231Z,34.13
2018-07-07T13:26:15.511Z,35.81
2018-07-07T13:28:47.659Z,34.79
2018-07-07T13:31:19.946Z,32.59
2018-07-07T13:33:52.101Z,31.36
2018-07-07T13:36:24.306Z,32.19
2018-07-07T13:38:56.498Z,33.95
2018-07-07T13:41:28.810Z,31.44
2018-07-07T13:44:00.990Z,33.65
2018-07-07T13:46:33.199Z,33.16
2018-07-07T13:49:05.479Z,33.69
2018-07-07T13:51:37.697Z,31.37
2018-07-07T13:54:09.953Z,31.15
2018-07-07T13:59:20.838Z,30.35
2018-07-07T14:01:52.986Z,30.48
2018-07-07T14:04:25.154Z,29.78
2018-07-07T14:06:57.324Z,30.82
2018-07-07T14:09:29.497Z,30.87
2018-07-07T14:12:01.739Z,31.91
2018-07-07T14:14:33.901Z,31.55
2018-07-07T14:17:06.158Z,33.09
2018-07-07T14:19:38.341Z,34.59
2018-07-07T14:22:10.820Z,32.60
2018-07-07T14:24:43.010Z,30.60
2018-07-07T14:27:15.194Z,31.17
2018-07-07T14:29:47.381Z,31.70
2018-07-07T14:32:19.604Z,32.57
2018-07-07T14:34:51.775Z,32.56
2018-07-07T14:37:23.914Z,33.61
2018-07-07T14:40:00.202Z,31.65
2018-07-07T14:42:48.695Z,32.60
2018-07-07T14:45:25.898Z,33.90
2018-07-07T14:48:03.286Z,33.52
2018-07-07T14:50:35.445Z,32.12
2018-07-07T14:53:07.629Z,30.22
2018-07-07T14:55:39.801Z,31.46
2018-07-07T14:58:12.049Z,30.84
2018-07-07T15:00:44.200Z,32.54
2018-07-07T15:03:16.338Z,32.52
2018-07-07T15:05:48.590Z,32.77
2018-07-07T15:08:20.873Z,33.01
2018-07-07T15:13:25.599Z,31.02
2018-07-07T15:15:57.648Z,31.57
2018-07-07T15:18:30.039Z,31.05
2018-07-07T15:21:02.298Z,29.59
2018-07-07T15:23:34.288Z,30.53
2018-07-07T15:26:06.259Z,32.31
2018-07-07T15:28:38.276Z,31.92
2018-07-07T15:31:10.244Z,31.95
2018-07-07T15:33:42.243Z,30.94
2018-07-07T15:36:14.228Z,30.81
2018-07-07T15:38:46.200Z,30.62
2018-07-07T15:41:18.196Z,30.32
2018-07-07T15:43:50.204Z,30.78
2018-07-07T15:46:22.211Z,30.31
2018-07-07T15:48:54.255Z,31.75
2018-07-07T15:51:26.213Z,31.34
2018-07-07T15:53:58.155Z,31.81
2018-07-07T15:56:30.125Z,30.90
2018-07-07T15:59:02.167Z,30.27
2018-07-07T16:01:34.172Z,29.81
2018-07-07T16:04:06.324Z,29.39
2018-07-07T16:06:38.338Z,30.74
2018-07-07T16:09:10.372Z,31.15
2018-07-07T16:11:42.466Z,32.37
2018-07-07T16:14:14.535Z,32.45
2018-07-07T16:16:46.542Z,31.52
2018-07-07T16:19:18.569Z,31.38
2018-07-07T16:21:50.593Z,30.99
2018-07-07T16:24:22.624Z,30.35
2018-07-07T16:26:54.686Z,30.20
2018-07-07T16:29:26.732Z,30.75
2018-07-07T16:31:58.740Z,30.09
2018-07-07T16:34:30.765Z,29.61
2018-07-07T16:37:02.785Z,30.26
2018-07-07T16:39:34.811Z,31.30
2018-07-07T16:42:06.826Z,30.72
2018-07-07T16:44:39.239Z,30.01
2018-07-07T16:47:11.396Z,30.30
2018-07-07T16:49:43.479Z,29.44
2018-07-07T16:52:15.565Z,28.98
2018-07-07T16:54:47.794Z,28.60
2018-07-07T16:57:19.838Z,28.28
2018-07-07T16:59:52.218Z,28.20
2018-07-07T17:02:24.226Z,27.93
2018-07-07T17:04:56.270Z,27.46
2018-07-07T17:07:28.397Z,27.03
2018-07-07T17:10:00.474Z,27.01
2018-07-07T17:12:32.511Z,26.96
2018-07-07T17:15:04.524Z,26.92
2018-07-07T17:17:36.571Z,26.74
2018-07-07T17:20:08.634Z,26.09
2018-07-07T17:22:40.736Z,26.14
2018-07-07T17:25:12.802Z,26.06
2018-07-07T17:27:44.827Z,25.76
2018-07-07T17:30:17.495Z,25.57
2018-07-07T17:32:49.673Z,25.43
2018-07-07T17:35:21.722Z,25.43
2018-07-07T17:37:53.855Z,25.52
2018-07-07T17:40:25.902Z,25.60
2018-07-07T17:42:58.004Z,25.54
2018-07-07T17:45:30.355Z,25.36
2018-07-07T17:48:02.407Z,25.49
2018-07-07T17:50:34.476Z,25.41
2018-07-07T17:53:06.522Z,25.30
2018-07-07T17:55:38.598Z,25.34
2018-07-07T17:58:10.645Z,25.17
2018-07-07T18:00:43.061Z,25.15
2018-07-07T18:03:15.142Z,25.06
2018-07-07T18:05:47.163Z,24.94
2018-07-07T18:08:19.171Z,24.85
2018-07-07T18:10:51.315Z,24.74
2018-07-07T18:13:23.340Z,24.71
2018-07-07T18:15:55.358Z,24.68
2018-07-07T18:18:27.386Z,24.47
2018-07-07T18:20:59.436Z,24.47
2018-07-07T18:23:31.492Z,24.23
2018-07-07T18:26:03.523Z,24.05
2018-07-07T18:28:35.518Z,23.90
2018-07-07T18:31:07.565Z,23.93
2018-07-07T18:33:39.665Z,23.84
2018-07-07T18:36:11.687Z,23.74
2018-07-07T18:38:43.755Z,23.58
2018-07-07T18:41:16.062Z,23.55
2018-07-07T18:43:48.281Z,23.42
2018-07-07T18:46:20.445Z,23.18
2018-07-07T18:48:52.680Z,23.03
2018-07-07T18:51:24.858Z,22.93
2018-07-07T18:53:57.020Z,22.93
2018-07-07T18:56:29.279Z,22.85
2018-07-07T18:59:01.453Z,22.67
2018-07-07T19:01:33.617Z,22.51
2018-07-07T19:04:05.804Z,22.46
2018-07-07T19:06:37.964Z,22.41
2018-07-07T19:09:10.067Z,22.14
2018-07-07T19:11:42.259Z,22.09
2018-07-07T19:14:14.476Z,22.09
2018-07-07T19:16:46.576Z,21.92
2018-07-07T19:20:28.151Z,21.66
2018-07-07T19:23:05.790Z,21.47
2018-07-07T19:25:43.541Z,21.38
2018-07-07T19:28:15.740Z,21.39
2018-07-07T19:30:47.821Z,21.48
2018-07-07T19:33:25.575Z,21.50
2018-07-07T19:36:03.286Z,21.32
2018-07-07T19:38:35.417Z,21.35
2018-07-07T19:41:07.517Z,21.29
2018-07-07T19:43:39.682Z,21.25
2018-07-07T19:46:11.919Z,21.08
2018-07-07T19:48:44.009Z,20.99
2018-07-07T19:51:16.180Z,20.96
2018-07-07T19:53:48.489Z,20.87
2018-07-07T19:56:20.509Z,20.86
2018-07-07T19:58:52.598Z,20.74
2018-07-07T20:01:24.741Z,20.72
2018-07-07T20:03:56.939Z,20.73
2018-07-07T20:06:29.107Z,20.57
2018-07-07T20:09:01.381Z,20.45
2018-07-07T20:11:33.548Z,20.28
2018-07-07T20:14:05.723Z,20.17
2018-07-07T20:16:49.250Z,20.09
2018-07-07T20:19:22.535Z,20.01
2018-07-07T20:21:56.226Z,19.84
2018-07-07T20:24:31.566Z,19.63
2018-07-07T20:27:09.211Z,19.61
2018-07-07T20:29:41.484Z,19.54
2018-07-07T20:32:19.437Z,19.33
2018-07-07T20:34:51.633Z,19.23
2018-07-07T20:37:23.816Z,19.05
2018-07-07T20:39:56.018Z,18.85
2018-07-07T20:42:28.244Z,18.61
2018-07-07T20:45:00.403Z,18.46
2018-07-07T20:47:32.605Z,18.32
2018-07-07T20:50:04.840Z,18.41
2018-07-07T20:52:36.976Z,18.40
2018-07-07T20:55:09.177Z,18.36
2018-07-07T20:57:41.405Z,18.28
2018-07-07T21:00:15.111Z,18.10
2018-07-07T21:02:47.442Z,18.20
2018-07-07T21:05:19.622Z,18.19
2018-07-07T21:07:51.826Z,18.04
2018-07-07T21:10:24.222Z,17.92
2018-07-07T21:12:58.450Z,17.85
2018-07-07T21:15:30.617Z,17.80
2018-07-07T21:18:02.874Z,17.80
2018-07-07T21:20:35.112Z,17.74
2018-07-07T21:23:08.336Z,17.73
2018-07-07T21:25:40.599Z,17.79
2018-07-07T21:28:12.764Z,17.79
2018-07-07T21:30:45.020Z,17.87
2018-07-07T21:33:17.136Z,17.75
2018-07-07T21:35:49.375Z,17.79
2018-07-07T21:38:21.529Z,17.86
2018-07-07T21:40:53.755Z,17.77
2018-07-07T21:43:26.054Z,17.78
2018-07-07T21:45:58.305Z,17.64
2018-07-07T21:48:30.517Z,17.55
2018-07-07T21:51:02.780Z,17.62
2018-07-07T21:53:35.006Z,17.47
2018-07-07T21:56:07.261Z,17.36
2018-07-07T21:58:39.491Z,17.33
2018-07-07T22:01:24.501Z,17.25
2018-07-07T22:04:03.552Z,17.23
2018-07-07T22:06:41.952Z,17.23
2018-07-07T22:09:14.113Z,17.24
2018-07-07T22:11:46.256Z,17.27
2018-07-07T22:14:18.412Z,17.18
2018-07-07T22:16:51.045Z,17.08
2018-07-07T22:19:23.156Z,17.03
2018-07-07T22:21:59.073Z,17.07
2018-07-07T22:24:31.206Z,16.94
2018-07-07T22:27:07.303Z,16.95
2018-07-07T22:29:39.432Z,16.91
2018-07-07T22:32:17.290Z,16.86
2018-07-07T22:34:49.726Z,16.72
2018-07-07T22:37:21.884Z,16.67
2018-07-07T22:39:54.017Z,16.60
2018-07-07T22:42:26.153Z,16.56
2018-07-07T22:44:58.245Z,16.45
2018-07-07T22:47:30.373Z,16.31
2018-07-07T22:50:02.497Z,16.19
2018-07-07T22:52:34.647Z,16.05
2018-07-07T22:55:06.816Z,16.05
2018-07-07T22:57:39.011Z,15.98
2018-07-07T23:00:11.243Z,15.90
2018-07-07T23:02:43.393Z,15.78
2018-07-07T23:05:15.614Z,15.84
2018-07-07T23:07:47.853Z,15.79
2018-07-07T23:10:20.033Z,15.83
2018-07-07T23:12:52.194Z,15.79
2018-07-07T23:15:24.468Z,15.67
2018-07-07T23:17:56.551Z,15.72
2018-07-07T23:20:28.795Z,15.52
2018-07-07T23:23:01.055Z,15.51
2018-07-07T23:25:33.312Z,15.40
2018-07-07T23:28:05.521Z,15.27
2018-07-07T23:30:37.741Z,15.08
2018-07-07T23:33:09.994Z,14.95
2018-07-07T23:35:42.176Z,14.93
2018-07-07T23:38:14.332Z,14.86
2018-07-07T23:40:46.512Z,14.81
2018-07-07T23:43:18.912Z,14.94
2018-07-07T23:45:51.052Z,15.09
2018-07-07T23:48:23.200Z,15.37
2018-07-07T23:50:55.384Z,15.36
2018-07-07T23:53:27.590Z,15.31
2018-07-07T23:55:59.822Z,15.38
2018-07-07T23:58:32.094Z,15.36
